sensor_id;sensor_type;location;lat;lon;timestamp;pressure;altitude;pressure_sealevel;temperature;humidity
72024;BME280;59889;50.700;5.440;2023-05-09T00:00:39;100281.15;;;24.23;35.86
72024;BME280;59889;50.700;5.440;2023-05-09T00:03:04;100277.68;;;24.26;35.85
72024;BME280;59889;50.700;5.440;2023-05-09T00:05:29;100272.88;;;24.41;35.99
72024;BME280;59889;50.700;5.440;2023-05-09T00:07:54;100268.41;;;24.53;35.80
72024;BME280;59889;50.700;5.440;2023-05-09T00:10:19;100266.12;;;24.47;35.88
72024;BME280;59889;50.700;5.440;2023-05-09T00:12:44;100258.50;;;24.55;35.76
72024;BME280;59889;50.700;5.440;2023-05-09T00:15:10;100255.07;;;24.59;35.69
72024;BME280;59889;50.700;5.440;2023-05-09T00:17:34;100252.78;;;24.44;35.90
72024;BME280;59889;50.700;5.440;2023-05-09T00:19:59;100248.55;;;24.49;35.85
72024;BME280;59889;50.700;5.440;2023-05-09T00:22:24;100247.90;;;24.46;35.89
72024;BME280;59889;50.700;5.440;2023-05-09T00:24:50;100244.49;;;24.49;35.53
72024;BME280;59889;50.700;5.440;2023-05-09T00:27:15;100240.71;;;24.28;35.79
72024;BME280;59889;50.700;5.440;2023-05-09T00:29:40;100239.32;;;24.41;35.64
72024;BME280;59889;50.700;5.440;2023-05-09T00:32:05;100238.59;;;24.63;35.63
72024;BME280;59889;50.700;5.440;2023-05-09T00:34:30;100235.37;;;24.01;35.83
72024;BME280;59889;50.700;5.440;2023-05-09T00:36:55;100227.39;;;24.17;35.95
72024;BME280;59889;50.700;5.440;2023-05-09T00:39:20;100219.86;;;23.89;35.99
72024;BME280;59889;50.700;5.440;2023-05-09T00:41:45;100211.97;;;24.41;35.64
72024;BME280;59889;50.700;5.440;2023-05-09T00:44:10;100211.17;;;24.57;35.74
72024;BME280;59889;50.700;5.440;2023-05-09T00:46:35;100214.10;;;24.56;35.76
72024;BME280;59889;50.700;5.440;2023-05-09T00:49:01;100216.07;;;24.58;35.72
72024;BME280;59889;50.700;5.440;2023-05-09T00:51:27;100216.24;;;24.65;35.62
72024;BME280;59889;50.700;5.440;2023-05-09T00:53:51;100206.47;;;24.57;35.75
72024;BME280;59889;50.700;5.440;2023-05-09T00:56:16;100200.46;;;24.62;35.68
72024;BME280;59889;50.700;5.440;2023-05-09T00:58:41;100192.39;;;24.32;35.74
72024;BME280;59889;50.700;5.440;2023-05-09T01:01:06;100187.32;;;24.32;35.74
72024;BME280;59889;50.700;5.440;2023-05-09T01:03:31;100186.78;;;24.66;35.62
72024;BME280;59889;50.700;5.440;2023-05-09T01:06:02;100186.04;;;24.72;35.55
72024;BME280;59889;50.700;5.440;2023-05-09T01:08:30;100185.76;;;24.25;35.86
72024;BME280;59889;50.700;5.440;2023-05-09T01:10:50;100182.08;;;24.53;35.78
72024;BME280;59889;50.700;5.440;2023-05-09T01:13:18;100178.92;;;24.54;35.78
72024;BME280;59889;50.700;5.440;2023-05-09T01:15:42;100173.39;;;24.55;35.75
72024;BME280;59889;50.700;5.440;2023-05-09T01:18:06;100170.04;;;24.49;35.87
72024;BME280;59889;50.700;5.440;2023-05-09T01:20:32;100169.15;;;24.30;35.79
72024;BME280;59889;50.700;5.440;2023-05-09T01:22:59;100167.34;;;24.21;35.90
72024;BME280;59889;50.700;5.440;2023-05-09T01:27:49;100162.77;;;24.77;35.49
72024;BME280;59889;50.700;5.440;2023-05-09T01:30:09;100165.57;;;24.51;35.80
72024;BME280;59889;50.700;5.440;2023-05-09T01:32:34;100162.52;;;24.61;35.71
72024;BME280;59889;50.700;5.440;2023-05-09T01:34:59;100153.22;;;24.11;35.71
72024;BME280;59889;50.700;5.440;2023-05-09T01:37:26;100140.81;;;24.39;35.66
72024;BME280;59889;50.700;5.440;2023-05-09T01:39:51;100138.84;;;24.70;35.54
72024;BME280;59889;50.700;5.440;2023-05-09T01:42:13;100139.35;;;24.47;35.87
72024;BME280;59889;50.700;5.440;2023-05-09T01:44:40;100132.76;;;24.36;35.71
72024;BME280;59889;50.700;5.440;2023-05-09T01:47:03;100128.20;;;24.55;35.79
72024;BME280;59889;50.700;5.440;2023-05-09T01:49:30;100128.91;;;24.65;35.62
72024;BME280;59889;50.700;5.440;2023-05-09T01:51:54;100126.85;;;24.27;35.51
72024;BME280;59889;50.700;5.440;2023-05-09T01:54:19;100123.96;;;24.51;35.80
72024;BME280;59889;50.700;5.440;2023-05-09T01:56:44;100125.04;;;24.55;35.75
72024;BME280;59889;50.700;5.440;2023-05-09T01:59:10;100128.62;;;24.52;35.80
72024;BME280;59889;50.700;5.440;2023-05-09T02:01:35;100133.30;;;24.61;35.70
72024;BME280;59889;50.700;5.440;2023-05-09T02:04:01;100132.76;;;24.45;35.92
72024;BME280;59889;50.700;5.440;2023-05-09T02:06:25;100128.94;;;24.74;35.52
72024;BME280;59889;50.700;5.440;2023-05-09T02:08:50;100127.11;;;24.51;35.80
72024;BME280;59889;50.700;5.440;2023-05-09T02:11:15;100122.50;;;24.44;35.61
72024;BME280;59889;50.700;5.440;2023-05-09T02:13:39;100121.19;;;24.55;35.76
72024;BME280;59889;50.700;5.440;2023-05-09T02:16:05;100123.98;;;24.22;35.60
72024;BME280;59889;50.700;5.440;2023-05-09T02:18:29;100124.46;;;24.49;35.87
72024;BME280;59889;50.700;5.440;2023-05-09T02:20:54;100123.78;;;24.28;35.81
72024;BME280;59889;50.700;5.440;2023-05-09T02:23:20;100122.05;;;24.70;35.59
72024;BME280;59889;50.700;5.440;2023-05-09T02:25:45;100116.42;;;24.75;35.48
72024;BME280;59889;50.700;5.440;2023-05-09T02:28:10;100114.85;;;24.11;35.75
72024;BME280;59889;50.700;5.440;2023-05-09T02:30:38;100115.17;;;24.48;35.87
72024;BME280;59889;50.700;5.440;2023-05-09T02:33:03;100114.57;;;24.60;35.71
72024;BME280;59889;50.700;5.440;2023-05-09T02:35:26;100112.36;;;24.74;35.54
72024;BME280;59889;50.700;5.440;2023-05-09T02:37:51;100108.71;;;24.40;35.97
72024;BME280;59889;50.700;5.440;2023-05-09T02:40:16;100109.03;;;24.48;35.86
72024;BME280;59889;50.700;5.440;2023-05-09T02:42:40;100111.46;;;24.22;35.92
72024;BME280;59889;50.700;5.440;2023-05-09T02:45:07;100110.78;;;24.37;35.71
72024;BME280;59889;50.700;5.440;2023-05-09T02:47:31;100105.98;;;24.44;35.90
72024;BME280;59889;50.700;5.440;2023-05-09T02:49:56;100106.35;;;24.63;35.68
72024;BME280;59889;50.700;5.440;2023-05-09T02:52:22;100110.45;;;24.57;35.77
72024;BME280;59889;50.700;5.440;2023-05-09T02:54:47;100107.76;;;24.84;35.72
72024;BME280;59889;50.700;5.440;2023-05-09T02:57:12;100103.40;;;24.62;35.68
72024;BME280;59889;50.700;5.440;2023-05-09T02:59:37;100103.24;;;24.65;35.64
72024;BME280;59889;50.700;5.440;2023-05-09T03:02:02;100097.25;;;24.34;35.74
72024;BME280;59889;50.700;5.440;2023-05-09T03:04:27;100095.32;;;24.48;35.87
72024;BME280;59889;50.700;5.440;2023-05-09T03:06:52;100096.15;;;24.19;35.66
72024;BME280;59889;50.700;5.440;2023-05-09T03:09:18;100096.28;;;24.29;35.83
72024;BME280;59889;50.700;5.440;2023-05-09T03:11:43;100095.84;;;24.62;35.72
72024;BME280;59889;50.700;5.440;2023-05-09T03:14:08;100093.26;;;24.66;35.66
72024;BME280;59889;50.700;5.440;2023-05-09T03:16:33;100088.12;;;24.59;35.75
72024;BME280;59889;50.700;5.440;2023-05-09T03:18:58;100083.58;;;24.24;35.90
72024;BME280;59889;50.700;5.440;2023-05-09T03:21:23;100079.73;;;24.25;35.86
72024;BME280;59889;50.700;5.440;2023-05-09T03:23:48;100079.10;;;24.71;35.59
72024;BME280;59889;50.700;5.440;2023-05-09T03:26:13;100075.89;;;24.28;35.52
72024;BME280;59889;50.700;5.440;2023-05-09T03:28:39;100074.45;;;24.71;35.57
72024;BME280;59889;50.700;5.440;2023-05-09T03:31:04;100077.33;;;24.68;35.61
72024;BME280;59889;50.700;5.440;2023-05-09T03:33:28;100080.05;;;24.69;35.59
72024;BME280;59889;50.700;5.440;2023-05-09T03:35:53;100081.97;;;24.47;35.58
72024;BME280;59889;50.700;5.440;2023-05-09T03:38:19;100075.50;;;24.61;35.70
72024;BME280;59889;50.700;5.440;2023-05-09T03:40:45;100071.43;;;24.30;35.79
72024;BME280;59889;50.700;5.440;2023-05-09T03:43:10;100065.18;;;24.60;35.72
72024;BME280;59889;50.700;5.440;2023-05-09T03:45:37;100063.44;;;24.58;35.78
72024;BME280;59889;50.700;5.440;2023-05-09T03:48:01;100060.75;;;24.57;35.78
72024;BME280;59889;50.700;5.440;2023-05-09T03:50:26;100051.62;;;24.53;35.82
72024;BME280;59889;50.700;5.440;2023-05-09T03:52:51;100048.39;;;24.26;35.83
72024;BME280;59889;50.700;5.440;2023-05-09T03:55:16;100042.41;;;24.54;35.78
72024;BME280;59889;50.700;5.440;2023-05-09T03:57:41;100044.10;;;24.37;35.70
72024;BME280;59889;50.700;5.440;2023-05-09T04:00:07;100044.50;;;24.62;35.72
72024;BME280;59889;50.700;5.440;2023-05-09T04:02:32;100043.94;;;24.79;35.79
72024;BME280;59889;50.700;5.440;2023-05-09T04:04:56;100042.21;;;24.82;36.02
72024;BME280;59889;50.700;5.440;2023-05-09T04:07:21;100039.68;;;24.66;36.29
72024;BME280;59889;50.700;5.440;2023-05-09T04:09:46;100034.39;;;24.70;36.04
72024;BME280;59889;50.700;5.440;2023-05-09T04:12:11;100034.32;;;24.75;35.85
72024;BME280;59889;50.700;5.440;2023-05-09T04:14:37;100032.62;;;24.63;35.71
72024;BME280;59889;50.700;5.440;2023-05-09T04:17:01;100028.23;;;24.31;35.54
72024;BME280;59889;50.700;5.440;2023-05-09T04:19:26;100030.09;;;24.66;35.27
72024;BME280;59889;50.700;5.440;2023-05-09T04:21:51;100031.31;;;24.41;35.18
72024;BME280;59889;50.700;5.440;2023-05-09T04:24:16;100030.80;;;23.98;35.59
72024;BME280;59889;50.700;5.440;2023-05-09T04:26:41;100026.22;;;24.45;35.13
72024;BME280;59889;50.700;5.440;2023-05-09T04:29:06;100028.37;;;24.33;35.36
72024;BME280;59889;50.700;5.440;2023-05-09T04:31:31;100027.16;;;24.39;35.16
72024;BME280;59889;50.700;5.440;2023-05-09T04:33:56;100020.50;;;24.09;35.17
72024;BME280;59889;50.700;5.440;2023-05-09T04:36:22;100016.88;;;24.42;35.25
72024;BME280;59889;50.700;5.440;2023-05-09T04:38:47;100014.14;;;24.32;35.49
72024;BME280;59889;50.700;5.440;2023-05-09T04:41:12;100013.35;;;24.66;35.33
72024;BME280;59889;50.700;5.440;2023-05-09T04:43:37;100009.64;;;24.35;35.41
72024;BME280;59889;50.700;5.440;2023-05-09T04:46:02;100010.50;;;24.57;35.39
72024;BME280;59889;50.700;5.440;2023-05-09T04:48:27;100004.66;;;24.28;35.36
72024;BME280;59889;50.700;5.440;2023-05-09T04:50:52;100008.72;;;24.18;35.35
72024;BME280;59889;50.700;5.440;2023-05-09T04:53:17;100001.40;;;24.30;35.23
72024;BME280;59889;50.700;5.440;2023-05-09T04:55:43;99995.67;;;24.42;35.03
72024;BME280;59889;50.700;5.440;2023-05-09T04:58:08;99989.65;;;24.22;35.27
72024;BME280;59889;50.700;5.440;2023-05-09T05:00:33;99987.21;;;24.16;35.35
72024;BME280;59889;50.700;5.440;2023-05-09T05:02:58;99982.96;;;24.18;35.32
72024;BME280;59889;50.700;5.440;2023-05-09T05:05:23;99979.37;;;24.21;35.23
72024;BME280;59889;50.700;5.440;2023-05-09T05:07:48;99978.47;;;24.41;35.23
72024;BME280;59889;50.700;5.440;2023-05-09T05:10:13;99977.20;;;24.21;35.10
72024;BME280;59889;50.700;5.440;2023-05-09T05:12:38;99973.34;;;24.26;35.27
72024;BME280;59889;50.700;5.440;2023-05-09T05:15:04;99967.15;;;24.27;35.39
72024;BME280;59889;50.700;5.440;2023-05-09T05:17:28;99965.95;;;24.14;35.41
72024;BME280;59889;50.700;5.440;2023-05-09T05:19:53;99960.08;;;24.15;35.35
72024;BME280;59889;50.700;5.440;2023-05-09T05:22:18;99960.08;;;24.19;35.38
72024;BME280;59889;50.700;5.440;2023-05-09T05:24:43;99957.39;;;24.31;35.27
72024;BME280;59889;50.700;5.440;2023-05-09T05:27:08;99957.22;;;24.09;35.63
72024;BME280;59889;50.700;5.440;2023-05-09T05:29:33;99958.47;;;24.04;35.77
72024;BME280;59889;50.700;5.440;2023-05-09T05:31:58;99956.93;;;24.03;35.89
72024;BME280;59889;50.700;5.440;2023-05-09T05:34:23;99953.41;;;24.08;35.92
72024;BME280;59889;50.700;5.440;2023-05-09T05:36:48;99947.73;;;24.13;35.88
72024;BME280;59889;50.700;5.440;2023-05-09T05:39:13;99944.97;;;24.26;35.68
72024;BME280;59889;50.700;5.440;2023-05-09T05:41:38;99939.00;;;23.92;35.82
72024;BME280;59889;50.700;5.440;2023-05-09T05:44:04;99937.25;;;24.02;35.66
72024;BME280;59889;50.700;5.440;2023-05-09T05:46:28;99934.96;;;24.09;35.90
72024;BME280;59889;50.700;5.440;2023-05-09T05:48:53;99935.07;;;24.16;35.86
72024;BME280;59889;50.700;5.440;2023-05-09T05:51:18;99936.35;;;24.21;35.75
72024;BME280;59889;50.700;5.440;2023-05-09T05:53:44;99933.99;;;24.13;35.82
72024;BME280;59889;50.700;5.440;2023-05-09T05:56:09;99929.02;;;24.13;35.81
72024;BME280;59889;50.700;5.440;2023-05-09T05:58:34;99927.14;;;24.17;35.77
72024;BME280;59889;50.700;5.440;2023-05-09T06:00:59;99926.18;;;24.12;35.80
72024;BME280;59889;50.700;5.440;2023-05-09T06:03:24;99929.60;;;24.12;35.77
72024;BME280;59889;50.700;5.440;2023-05-09T06:05:49;99926.22;;;24.10;35.80
72024;BME280;59889;50.700;5.440;2023-05-09T06:08:14;99925.89;;;24.00;35.90
72024;BME280;59889;50.700;5.440;2023-05-09T06:10:39;99924.19;;;24.35;35.74
72024;BME280;59889;50.700;5.440;2023-05-09T06:13:04;99920.84;;;24.04;35.85
72024;BME280;59889;50.700;5.440;2023-05-09T06:15:29;99919.38;;;24.02;35.81
72024;BME280;59889;50.700;5.440;2023-05-09T06:17:54;99920.47;;;24.00;35.84
72024;BME280;59889;50.700;5.440;2023-05-09T06:20:19;99918.83;;;23.76;35.82
72024;BME280;59889;50.700;5.440;2023-05-09T06:22:44;99918.56;;;24.03;35.76
72024;BME280;59889;50.700;5.440;2023-05-09T06:25:09;99915.54;;;24.38;35.61
72024;BME280;59889;50.700;5.440;2023-05-09T06:27:34;99912.64;;;24.20;35.81
72024;BME280;59889;50.700;5.440;2023-05-09T06:29:59;99911.95;;;23.98;35.73
72024;BME280;59889;50.700;5.440;2023-05-09T06:32:24;99906.45;;;24.07;35.59
72024;BME280;59889;50.700;5.440;2023-05-09T06:34:49;99905.61;;;24.31;35.55
72024;BME280;59889;50.700;5.440;2023-05-09T06:37:14;99902.09;;;24.25;35.63
72024;BME280;59889;50.700;5.440;2023-05-09T06:39:39;99899.86;;;23.96;35.69
72024;BME280;59889;50.700;5.440;2023-05-09T06:42:05;99899.16;;;23.95;35.69
72024;BME280;59889;50.700;5.440;2023-05-09T06:44:30;99900.22;;;24.24;35.60
72024;BME280;59889;50.700;5.440;2023-05-09T06:46:55;99895.47;;;24.07;35.47
72024;BME280;59889;50.700;5.440;2023-05-09T06:49:20;99892.62;;;24.07;35.46
72024;BME280;59889;50.700;5.440;2023-05-09T06:51:45;99891.74;;;24.27;35.49
72024;BME280;59889;50.700;5.440;2023-05-09T06:54:10;99886.23;;;24.16;35.31
72024;BME280;59889;50.700;5.440;2023-05-09T06:56:35;99882.89;;;24.00;35.45
72024;BME280;59889;50.700;5.440;2023-05-09T06:59:00;99885.19;;;23.99;35.48
72024;BME280;59889;50.700;5.440;2023-05-09T07:01:25;99879.97;;;23.99;35.51
72024;BME280;59889;50.700;5.440;2023-05-09T07:03:50;99879.15;;;24.03;35.45
72024;BME280;59889;50.700;5.440;2023-05-09T07:06:15;99876.36;;;24.25;35.45
72024;BME280;59889;50.700;5.440;2023-05-09T07:08:40;99876.66;;;24.28;35.38
72024;BME280;59889;50.700;5.440;2023-05-09T07:11:05;99874.17;;;24.17;35.50
72024;BME280;59889;50.700;5.440;2023-05-09T07:13:30;99871.71;;;24.07;35.32
72024;BME280;59889;50.700;5.440;2023-05-09T07:15:55;99870.78;;;24.27;35.40
72024;BME280;59889;50.700;5.440;2023-05-09T07:18:20;99875.23;;;24.09;35.29
72024;BME280;59889;50.700;5.440;2023-05-09T07:20:45;99869.32;;;24.24;35.37
72024;BME280;59889;50.700;5.440;2023-05-09T07:23:10;99871.38;;;24.26;35.32
72024;BME280;59889;50.700;5.440;2023-05-09T07:25:35;99868.49;;;24.04;35.29
72024;BME280;59889;50.700;5.440;2023-05-09T07:28:00;99867.22;;;23.96;35.42
72024;BME280;59889;50.700;5.440;2023-05-09T07:30:25;99868.75;;;24.31;35.27
72024;BME280;59889;50.700;5.440;2023-05-09T07:32:51;99863.87;;;24.03;35.32
72024;BME280;59889;50.700;5.440;2023-05-09T07:35:16;99860.49;;;24.04;35.30
72024;BME280;59889;50.700;5.440;2023-05-09T07:37:41;99861.85;;;24.00;35.34
72024;BME280;59889;50.700;5.440;2023-05-09T07:40:07;99859.85;;;23.97;35.40
72024;BME280;59889;50.700;5.440;2023-05-09T07:42:32;99859.71;;;24.04;35.31
72024;BME280;59889;50.700;5.440;2023-05-09T07:44:57;99856.06;;;24.05;35.28
72024;BME280;59889;50.700;5.440;2023-05-09T07:47:22;99851.50;;;24.01;35.33
72024;BME280;59889;50.700;5.440;2023-05-09T07:49:47;99846.03;;;24.30;35.26
72024;BME280;59889;50.700;5.440;2023-05-09T07:52:13;99840.58;;;23.97;35.36
72024;BME280;59889;50.700;5.440;2023-05-09T07:54:38;99837.24;;;24.23;35.33
72024;BME280;59889;50.700;5.440;2023-05-09T07:57:03;99837.94;;;23.93;35.43
72024;BME280;59889;50.700;5.440;2023-05-09T07:59:28;99837.61;;;24.19;35.44
72024;BME280;59889;50.700;5.440;2023-05-09T08:01:53;99833.81;;;24.03;35.35
72024;BME280;59889;50.700;5.440;2023-05-09T08:04:18;99829.60;;;23.94;35.47
72024;BME280;59889;50.700;5.440;2023-05-09T08:06:43;99829.77;;;24.01;35.35
72024;BME280;59889;50.700;5.440;2023-05-09T08:09:08;99824.93;;;24.27;35.33
72024;BME280;59889;50.700;5.440;2023-05-09T08:11:34;99819.52;;;23.95;35.44
72024;BME280;59889;50.700;5.440;2023-05-09T08:13:58;99818.11;;;23.97;35.44
72024;BME280;59889;50.700;5.440;2023-05-09T08:16:23;99814.75;;;24.20;35.50
72024;BME280;59889;50.700;5.440;2023-05-09T08:18:48;99806.97;;;23.95;35.49
72024;BME280;59889;50.700;5.440;2023-05-09T08:21:13;99804.05;;;23.88;35.59
72024;BME280;59889;50.700;5.440;2023-05-09T08:23:38;99801.73;;;24.23;35.47
72024;BME280;59889;50.700;5.440;2023-05-09T08:26:03;99798.24;;;23.87;35.65
72024;BME280;59889;50.700;5.440;2023-05-09T08:28:28;99792.48;;;24.19;35.61
72024;BME280;59889;50.700;5.440;2023-05-09T08:30:53;99787.62;;;23.93;35.64
72024;BME280;59889;50.700;5.440;2023-05-09T08:33:18;99784.21;;;24.30;35.44
72024;BME280;59889;50.700;5.440;2023-05-09T08:35:43;99783.30;;;24.20;35.59
72024;BME280;59889;50.700;5.440;2023-05-09T08:38:08;99783.17;;;23.92;35.71
72024;BME280;59889;50.700;5.440;2023-05-09T08:40:34;99783.11;;;23.78;35.96
72024;BME280;59889;50.700;5.440;2023-05-09T08:42:58;99777.43;;;23.92;35.84
72024;BME280;59889;50.700;5.440;2023-05-09T08:45:25;99776.09;;;24.22;35.80
72024;BME280;59889;50.700;5.440;2023-05-09T08:47:48;99773.46;;;24.38;35.98
72024;BME280;59889;50.700;5.440;2023-05-09T08:50:13;99766.81;;;24.18;36.02
72024;BME280;59889;50.700;5.440;2023-05-09T08:52:38;99764.33;;;23.86;36.17
72024;BME280;59889;50.700;5.440;2023-05-09T08:55:04;99764.26;;;24.20;36.12
72024;BME280;59889;50.700;5.440;2023-05-09T08:57:30;99762.89;;;23.94;36.22
72024;BME280;59889;50.700;5.440;2023-05-09T08:59:54;99759.79;;;24.13;36.37
72024;BME280;59889;50.700;5.440;2023-05-09T09:02:19;99757.92;;;24.11;36.37
72024;BME280;59889;50.700;5.440;2023-05-09T09:04:44;99759.17;;;23.98;36.31
72024;BME280;59889;50.700;5.440;2023-05-09T09:07:09;99757.20;;;23.90;36.37
72024;BME280;59889;50.700;5.440;2023-05-09T09:09:35;99754.02;;;24.07;36.44
72024;BME280;59889;50.700;5.440;2023-05-09T09:11:59;99752.90;;;24.16;36.36
72024;BME280;59889;50.700;5.440;2023-05-09T09:14:25;99748.15;;;23.80;36.53
72024;BME280;59889;50.700;5.440;2023-05-09T09:16:51;99749.78;;;24.15;36.37
72024;BME280;59889;50.700;5.440;2023-05-09T09:19:16;99745.92;;;24.18;36.35
72024;BME280;59889;50.700;5.440;2023-05-09T09:21:40;99743.17;;;23.91;36.38
72024;BME280;59889;50.700;5.440;2023-05-09T09:24:06;99743.17;;;23.91;36.40
72024;BME280;59889;50.700;5.440;2023-05-09T09:26:29;99738.07;;;24.11;36.46
72024;BME280;59889;50.700;5.440;2023-05-09T09:28:54;99737.69;;;23.97;36.32
72024;BME280;59889;50.700;5.440;2023-05-09T09:31:21;99731.70;;;24.16;36.10
72024;BME280;59889;50.700;5.440;2023-05-09T09:33:44;99731.81;;;24.02;36.26
72024;BME280;59889;50.700;5.440;2023-05-09T09:36:09;99731.66;;;24.02;36.21
72024;BME280;59889;50.700;5.440;2023-05-09T09:38:39;99728.24;;;24.27;36.21
72024;BME280;59889;50.700;5.440;2023-05-09T09:41:00;99727.66;;;24.14;36.35
72024;BME280;59889;50.700;5.440;2023-05-09T09:43:27;99726.30;;;24.11;36.38
72024;BME280;59889;50.700;5.440;2023-05-09T09:45:52;99726.78;;;24.07;36.43
72024;BME280;59889;50.700;5.440;2023-05-09T09:48:16;99722.33;;;23.95;36.28
72024;BME280;59889;50.700;5.440;2023-05-09T09:50:41;99718.65;;;23.99;36.22
72024;BME280;59889;50.700;5.440;2023-05-09T09:53:06;99719.80;;;23.93;36.27
72024;BME280;59889;50.700;5.440;2023-05-09T09:55:33;99716.66;;;23.99;36.49
72024;BME280;59889;50.700;5.440;2023-05-09T09:57:56;99715.43;;;23.85;36.36
72024;BME280;59889;50.700;5.440;2023-05-09T10:00:24;99711.29;;;23.99;36.19
72024;BME280;59889;50.700;5.440;2023-05-09T10:02:48;99710.74;;;24.04;36.42
72024;BME280;59889;50.700;5.440;2023-05-09T10:05:18;99706.98;;;24.07;36.38
72024;BME280;59889;50.700;5.440;2023-05-09T10:07:36;99707.65;;;23.92;36.30
72024;BME280;59889;50.700;5.440;2023-05-09T10:10:01;99707.84;;;24.13;36.31
72024;BME280;59889;50.700;5.440;2023-05-09T10:12:27;99710.10;;;24.06;36.41
72024;BME280;59889;50.700;5.440;2023-05-09T10:14:52;99706.48;;;23.91;36.57
72024;BME280;59889;50.700;5.440;2023-05-09T10:17:18;99701.90;;;24.09;36.37
72024;BME280;59889;50.700;5.440;2023-05-09T10:19:43;99701.06;;;23.95;36.23
72024;BME280;59889;50.700;5.440;2023-05-09T10:22:09;99698.74;;;23.93;36.22
72024;BME280;59889;50.700;5.440;2023-05-09T10:24:34;99696.18;;;23.89;36.25
72024;BME280;59889;50.700;5.440;2023-05-09T10:27:01;99693.29;;;24.07;36.33
72024;BME280;59889;50.700;5.440;2023-05-09T10:29:24;99692.47;;;23.88;36.30
72024;BME280;59889;50.700;5.440;2023-05-09T10:31:52;99687.91;;;24.17;36.26
72024;BME280;59889;50.700;5.440;2023-05-09T10:34:12;99687.23;;;23.95;36.25
72024;BME280;59889;50.700;5.440;2023-05-09T10:36:37;99681.43;;;24.09;36.33
72024;BME280;59889;50.700;5.440;2023-05-09T10:39:02;99681.03;;;24.11;36.30
72024;BME280;59889;50.700;5.440;2023-05-09T10:41:27;99676.59;;;23.81;36.37
72024;BME280;59889;50.700;5.440;2023-05-09T10:43:54;99674.03;;;23.82;36.34
72024;BME280;59889;50.700;5.440;2023-05-09T10:46:17;99673.69;;;24.07;36.32
72024;BME280;59889;50.700;5.440;2023-05-09T10:48:42;99672.06;;;24.13;36.21
72024;BME280;59889;50.700;5.440;2023-05-09T10:51:07;99670.48;;;23.90;36.19
72024;BME280;59889;50.700;5.440;2023-05-09T10:53:40;99665.95;;;23.77;36.32
72024;BME280;59889;50.700;5.440;2023-05-09T10:55:57;99667.87;;;23.81;36.23
72024;BME280;59889;50.700;5.440;2023-05-09T10:58:24;99666.75;;;23.93;36.35
72024;BME280;59889;50.700;5.440;2023-05-09T11:00:48;99661.69;;;23.86;36.13
72024;BME280;59889;50.700;5.440;2023-05-09T11:03:12;99659.36;;;23.76;36.19
72024;BME280;59889;50.700;5.440;2023-05-09T11:05:38;99660.97;;;24.08;36.08
72024;BME280;59889;50.700;5.440;2023-05-09T11:10:40;99658.73;;;23.83;36.07
72024;BME280;59889;50.700;5.440;2023-05-09T11:12:53;99654.03;;;23.82;36.05
72024;BME280;59889;50.700;5.440;2023-05-09T11:15:17;99655.33;;;24.35;35.99
72024;BME280;59889;50.700;5.440;2023-05-09T11:17:42;99645.92;;;23.81;36.03
72024;BME280;59889;50.700;5.440;2023-05-09T11:20:08;99645.01;;;23.84;36.01
72024;BME280;59889;50.700;5.440;2023-05-09T11:22:39;99645.01;;;24.15;35.90
72024;BME280;59889;50.700;5.440;2023-05-09T11:25:01;99638.39;;;23.82;35.93
72024;BME280;59889;50.700;5.440;2023-05-09T11:27:24;99636.50;;;24.33;35.84
72024;BME280;59889;50.700;5.440;2023-05-09T11:29:51;99633.49;;;23.99;35.93
72024;BME280;59889;50.700;5.440;2023-05-09T11:32:13;99633.01;;;23.97;35.90
72024;BME280;59889;50.700;5.440;2023-05-09T11:34:37;99628.08;;;23.68;35.94
72024;BME280;59889;50.700;5.440;2023-05-09T11:37:08;99628.55;;;23.95;35.87
72024;BME280;59889;50.700;5.440;2023-05-09T11:39:27;99627.36;;;24.04;35.73
72024;BME280;59889;50.700;5.440;2023-05-09T11:41:52;99624.88;;;23.58;35.99
72024;BME280;59889;50.700;5.440;2023-05-09T11:44:19;99623.30;;;24.06;35.68
72024;BME280;59889;50.700;5.440;2023-05-09T11:46:42;99618.04;;;24.01;35.68
72024;BME280;59889;50.700;5.440;2023-05-09T11:49:07;99614.44;;;23.93;35.49
72024;BME280;59889;50.700;5.440;2023-05-09T11:51:35;99610.81;;;24.07;35.58
72024;BME280;59889;50.700;5.440;2023-05-09T11:53:57;99609.66;;;24.00;35.67
72024;BME280;59889;50.700;5.440;2023-05-09T11:56:22;99606.57;;;23.87;35.79
72024;BME280;59889;50.700;5.440;2023-05-09T11:58:50;99606.54;;;23.90;35.78
72024;BME280;59889;50.700;5.440;2023-05-09T12:01:13;99606.13;;;24.34;35.54
72024;BME280;59889;50.700;5.440;2023-05-09T12:03:41;99603.94;;;23.73;35.67
72024;BME280;59889;50.700;5.440;2023-05-09T12:06:03;99598.13;;;23.88;35.81
72024;BME280;59889;50.700;5.440;2023-05-09T12:08:28;99596.34;;;23.87;35.87
72024;BME280;59889;50.700;5.440;2023-05-09T12:10:53;99591.75;;;23.90;35.75
72024;BME280;59889;50.700;5.440;2023-05-09T12:13:18;99589.51;;;24.02;35.59
72024;BME280;59889;50.700;5.440;2023-05-09T12:15:43;99589.63;;;24.02;35.58
72024;BME280;59889;50.700;5.440;2023-05-09T12:18:08;99587.62;;;23.95;35.67
72024;BME280;59889;50.700;5.440;2023-05-09T12:20:40;99585.85;;;24.21;35.64
72024;BME280;59889;50.700;5.440;2023-05-09T12:22:58;99582.35;;;23.71;35.67
72024;BME280;59889;50.700;5.440;2023-05-09T12:25:23;99581.19;;;23.99;35.60
72024;BME280;59889;50.700;5.440;2023-05-09T12:27:48;99579.87;;;23.76;35.57
72024;BME280;59889;50.700;5.440;2023-05-09T12:30:13;99577.84;;;23.82;35.50
72024;BME280;59889;50.700;5.440;2023-05-09T12:32:38;99575.36;;;24.25;35.58
72024;BME280;59889;50.700;5.440;2023-05-09T12:35:06;99574.55;;;24.19;35.39
72024;BME280;59889;50.700;5.440;2023-05-09T12:37:30;99573.32;;;24.20;35.38
72024;BME280;59889;50.700;5.440;2023-05-09T12:40:00;99568.06;;;24.14;35.44
72024;BME280;59889;50.700;5.440;2023-05-09T12:42:18;99564.33;;;23.96;35.68
72024;BME280;59889;50.700;5.440;2023-05-09T12:44:47;99565.67;;;24.18;35.50
72024;BME280;59889;50.700;5.440;2023-05-09T12:47:11;99560.12;;;23.97;35.74